Terminal Aerodrome Forecast
Issued by NWS

Home | Current Version | Previous Version | Text Only | Print | Product List | Glossary On
Versions: 1 2 3 4 5 6 7 8 9 10 11 12 13 14 15 16 17 18 19 20 21 22 23 24 25 26 27 28 29 30
650
FTAK31 PANC 242340
TAFAEN
TAF
PAEN 242340Z 2500/2524 16012KT 5SM -RA BKN025 OVC035
      TEMPO 2500/2501 VRB06KT P6SM -SHRA SCT025
     FM250100 19016G26KT 4SM -RA BKN015
     FM250300 19018G26KT P6SM -SHRA SCT015 BKN025
     FM251000 18022G32KT P6SM VCSH SCT035 BKN050=

USA.gov is the U.S. government's official web portal to all federal, state and local government web resources and services.